sensor_id;sensor_type;location;lat;lon;timestamp;temperature;humidity
25024;DHT22;13033;50.936;5.334;2023-04-03T00:01:33;4.90;99.90
25024;DHT22;13033;50.936;5.334;2023-04-03T00:03:59;4.90;99.90
25024;DHT22;13033;50.936;5.334;2023-04-03T00:06:25;4.80;99.90
25024;DHT22;13033;50.936;5.334;2023-04-03T00:08:51;4.70;99.90
25024;DHT22;13033;50.936;5.334;2023-04-03T00:11:17;4.80;99.90
25024;DHT22;13033;50.936;5.334;2023-04-03T00:13:44;4.80;99.90
25024;DHT22;13033;50.936;5.334;2023-04-03T00:16:11;4.70;99.90
25024;DHT22;13033;50.936;5.334;2023-04-03T00:18:37;4.70;99.90
25024;DHT22;13033;50.936;5.334;2023-04-03T00:21:04;4.40;99.90
25024;DHT22;13033;50.936;5.334;2023-04-03T00:23:30;4.50;99.90
25024;DHT22;13033;50.936;5.334;2023-04-03T00:25:56;4.50;99.90
25024;DHT22;13033;50.936;5.334;2023-04-03T00:28:22;4.60;99.90
25024;DHT22;13033;50.936;5.334;2023-04-03T00:30:51;4.60;99.90
25024;DHT22;13033;50.936;5.334;2023-04-03T00:33:18;4.70;99.90
25024;DHT22;13033;50.936;5.334;2023-04-03T00:35:47;4.70;99.90
25024;DHT22;13033;50.936;5.334;2023-04-03T00:38:14;4.60;99.90
25024;DHT22;13033;50.936;5.334;2023-04-03T00:40:43;4.50;99.90
25024;DHT22;13033;50.936;5.334;2023-04-03T00:43:29;4.50;99.90
25024;DHT22;13033;50.936;5.334;2023-04-03T00:45:57;4.40;99.90
25024;DHT22;13033;50.936;5.334;2023-04-03T00:50:52;4.50;99.90
25024;DHT22;13033;50.936;5.334;2023-04-03T00:53:24;4.40;99.90
25024;DHT22;13033;50.936;5.334;2023-04-03T00:55:51;4.50;99.90
25024;DHT22;13033;50.936;5.334;2023-04-03T00:58:20;4.40;99.90
25024;DHT22;13033;50.936;5.334;2023-04-03T01:00:53;4.50;99.90
25024;DHT22;13033;50.936;5.334;2023-04-03T01:03:23;4.40;99.90
25024;DHT22;13033;50.936;5.334;2023-04-03T01:05:49;4.30;99.90
25024;DHT22;13033;50.936;5.334;2023-04-03T01:08:15;4.30;99.90
25024;DHT22;13033;50.936;5.334;2023-04-03T01:10:41;4.20;99.90
25024;DHT22;13033;50.936;5.334;2023-04-03T01:13:27;4.30;99.90
25024;DHT22;13033;50.936;5.334;2023-04-03T01:15:53;4.20;99.90
25024;DHT22;13033;50.936;5.334;2023-04-03T01:18:20;4.10;99.90
25024;DHT22;13033;50.936;5.334;2023-04-03T01:23:29;4.10;99.90
25024;DHT22;13033;50.936;5.334;2023-04-03T01:25:57;4.10;99.90
25024;DHT22;13033;50.936;5.334;2023-04-03T01:28:28;4.10;99.90
25024;DHT22;13033;50.936;5.334;2023-04-03T01:33:41;4.10;99.90
25024;DHT22;13033;50.936;5.334;2023-04-03T01:36:13;4.00;99.90
25024;DHT22;13033;50.936;5.334;2023-04-03T01:38:39;4.00;99.90
25024;DHT22;13033;50.936;5.334;2023-04-03T01:41:04;4.00;99.90
25024;DHT22;13033;50.936;5.334;2023-04-03T01:43:30;4.00;99.90
25024;DHT22;13033;50.936;5.334;2023-04-03T01:45:56;4.10;99.90
25024;DHT22;13033;50.936;5.334;2023-04-03T01:48:21;4.10;99.90
25024;DHT22;13033;50.936;5.334;2023-04-03T01:50:47;4.00;99.90
25024;DHT22;13033;50.936;5.334;2023-04-03T01:53:13;4.10;99.90
25024;DHT22;13033;50.936;5.334;2023-04-03T01:55:38;4.10;99.90
25024;DHT22;13033;50.936;5.334;2023-04-03T01:58:04;3.90;99.90
25024;DHT22;13033;50.936;5.334;2023-04-03T02:00:30;3.90;99.90
25024;DHT22;13033;50.936;5.334;2023-04-03T02:02:56;3.90;99.90
25024;DHT22;13033;50.936;5.334;2023-04-03T02:05:22;3.90;99.90
25024;DHT22;13033;50.936;5.334;2023-04-03T02:07:48;3.90;99.90
25024;DHT22;13033;50.936;5.334;2023-04-03T02:10:13;3.90;99.90
25024;DHT22;13033;50.936;5.334;2023-04-03T02:12:39;4.00;99.90
25024;DHT22;13033;50.936;5.334;2023-04-03T02:15:05;4.10;99.90
25024;DHT22;13033;50.936;5.334;2023-04-03T02:17:31;4.10;99.90
25024;DHT22;13033;50.936;5.334;2023-04-03T02:19:57;4.10;99.90
25024;DHT22;13033;50.936;5.334;2023-04-03T02:22:22;4.00;99.90
25024;DHT22;13033;50.936;5.334;2023-04-03T02:24:48;3.90;99.90
25024;DHT22;13033;50.936;5.334;2023-04-03T02:27:14;3.80;99.90
25024;DHT22;13033;50.936;5.334;2023-04-03T02:29:40;3.70;99.90
25024;DHT22;13033;50.936;5.334;2023-04-03T02:32:05;3.70;99.90
25024;DHT22;13033;50.936;5.334;2023-04-03T02:34:31;3.60;99.90
25024;DHT22;13033;50.936;5.334;2023-04-03T02:36:57;3.40;99.90
25024;DHT22;13033;50.936;5.334;2023-04-03T02:39:22;3.50;99.90
25024;DHT22;13033;50.936;5.334;2023-04-03T02:41:48;3.50;99.90
25024;DHT22;13033;50.936;5.334;2023-04-03T02:44:14;3.50;99.90
25024;DHT22;13033;50.936;5.334;2023-04-03T02:46:39;3.20;99.90
25024;DHT22;13033;50.936;5.334;2023-04-03T02:49:05;3.30;99.90
25024;DHT22;13033;50.936;5.334;2023-04-03T02:51:32;3.30;99.90
25024;DHT22;13033;50.936;5.334;2023-04-03T02:53:57;3.40;99.90
25024;DHT22;13033;50.936;5.334;2023-04-03T02:56:23;3.60;99.90
25024;DHT22;13033;50.936;5.334;2023-04-03T02:58:49;3.50;99.90
25024;DHT22;13033;50.936;5.334;2023-04-03T03:01:14;3.50;99.90
25024;DHT22;13033;50.936;5.334;2023-04-03T03:03:40;3.50;99.90
25024;DHT22;13033;50.936;5.334;2023-04-03T03:06:13;3.40;99.90
25024;DHT22;13033;50.936;5.334;2023-04-03T03:08:40;3.40;99.90
25024;DHT22;13033;50.936;5.334;2023-04-03T03:11:06;3.40;99.90
25024;DHT22;13033;50.936;5.334;2023-04-03T03:13:32;3.50;99.90
25024;DHT22;13033;50.936;5.334;2023-04-03T03:15:58;3.40;99.90
25024;DHT22;13033;50.936;5.334;2023-04-03T03:18:24;3.40;99.90
25024;DHT22;13033;50.936;5.334;2023-04-03T03:20:54;3.40;99.90
25024;DHT22;13033;50.936;5.334;2023-04-03T03:23:21;3.40;99.90
25024;DHT22;13033;50.936;5.334;2023-04-03T03:25:48;3.40;99.90
25024;DHT22;13033;50.936;5.334;2023-04-03T03:28:13;3.50;99.90
25024;DHT22;13033;50.936;5.334;2023-04-03T03:30:39;3.50;99.90
25024;DHT22;13033;50.936;5.334;2023-04-03T03:33:04;3.40;99.90
25024;DHT22;13033;50.936;5.334;2023-04-03T03:35:30;3.40;99.90
25024;DHT22;13033;50.936;5.334;2023-04-03T03:37:56;3.20;99.90
25024;DHT22;13033;50.936;5.334;2023-04-03T03:40:21;3.20;99.90
25024;DHT22;13033;50.936;5.334;2023-04-03T03:42:47;3.20;99.90
25024;DHT22;13033;50.936;5.334;2023-04-03T03:45:13;3.20;99.90
25024;DHT22;13033;50.936;5.334;2023-04-03T03:47:38;3.30;99.90
25024;DHT22;13033;50.936;5.334;2023-04-03T03:50:06;3.30;99.90
25024;DHT22;13033;50.936;5.334;2023-04-03T03:52:31;3.20;99.90
25024;DHT22;13033;50.936;5.334;2023-04-03T03:54:57;3.30;99.90
25024;DHT22;13033;50.936;5.334;2023-04-03T03:57:23;3.40;99.90
25024;DHT22;13033;50.936;5.334;2023-04-03T03:59:48;3.50;99.90
25024;DHT22;13033;50.936;5.334;2023-04-03T04:02:15;3.50;99.90
25024;DHT22;13033;50.936;5.334;2023-04-03T04:04:41;3.40;99.90
25024;DHT22;13033;50.936;5.334;2023-04-03T04:07:07;3.40;99.90
25024;DHT22;13033;50.936;5.334;2023-04-03T04:09:33;3.40;99.90
25024;DHT22;13033;50.936;5.334;2023-04-03T04:11:58;3.20;99.90
25024;DHT22;13033;50.936;5.334;2023-04-03T04:14:24;3.20;99.90
25024;DHT22;13033;50.936;5.334;2023-04-03T04:16:49;3.20;99.90
25024;DHT22;13033;50.936;5.334;2023-04-03T04:19:15;3.30;99.90
25024;DHT22;13033;50.936;5.334;2023-04-03T04:21:41;3.10;99.90
25024;DHT22;13033;50.936;5.334;2023-04-03T04:24:08;3.10;99.90
25024;DHT22;13033;50.936;5.334;2023-04-03T04:26:34;3.10;99.90
25024;DHT22;13033;50.936;5.334;2023-04-03T04:29:00;2.80;99.90
25024;DHT22;13033;50.936;5.334;2023-04-03T04:31:25;2.80;99.90
25024;DHT22;13033;50.936;5.334;2023-04-03T04:33:51;2.80;99.90
25024;DHT22;13033;50.936;5.334;2023-04-03T04:36:17;2.90;99.90
25024;DHT22;13033;50.936;5.334;2023-04-03T04:38:43;2.90;99.90
25024;DHT22;13033;50.936;5.334;2023-04-03T04:41:09;2.80;99.90
25024;DHT22;13033;50.936;5.334;2023-04-03T04:43:35;2.80;99.90
25024;DHT22;13033;50.936;5.334;2023-04-03T04:46:08;2.80;99.90
25024;DHT22;13033;50.936;5.334;2023-04-03T04:48:35;2.80;99.90
25024;DHT22;13033;50.936;5.334;2023-04-03T04:51:01;2.80;99.90
25024;DHT22;13033;50.936;5.334;2023-04-03T04:53:27;2.60;99.90
25024;DHT22;13033;50.936;5.334;2023-04-03T04:55:53;2.70;99.90
25024;DHT22;13033;50.936;5.334;2023-04-03T04:58:19;2.80;99.90
25024;DHT22;13033;50.936;5.334;2023-04-03T05:00:45;2.80;99.90
25024;DHT22;13033;50.936;5.334;2023-04-03T05:03:11;2.80;99.90
25024;DHT22;13033;50.936;5.334;2023-04-03T05:05:37;2.80;99.90
25024;DHT22;13033;50.936;5.334;2023-04-03T05:08:03;2.90;99.90
25024;DHT22;13033;50.936;5.334;2023-04-03T05:10:29;2.90;99.90
25024;DHT22;13033;50.936;5.334;2023-04-03T05:12:56;2.80;99.90
25024;DHT22;13033;50.936;5.334;2023-04-03T05:15:22;2.90;99.90
25024;DHT22;13033;50.936;5.334;2023-04-03T05:17:48;2.80;99.90
25024;DHT22;13033;50.936;5.334;2023-04-03T05:20:13;2.80;99.90
25024;DHT22;13033;50.936;5.334;2023-04-03T05:22:39;2.70;99.90
25024;DHT22;13033;50.936;5.334;2023-04-03T05:25:06;2.70;99.90
25024;DHT22;13033;50.936;5.334;2023-04-03T05:27:32;2.70;99.90
25024;DHT22;13033;50.936;5.334;2023-04-03T05:29:57;2.80;99.90
25024;DHT22;13033;50.936;5.334;2023-04-03T05:32:24;2.80;99.90
25024;DHT22;13033;50.936;5.334;2023-04-03T05:34:50;2.80;99.90
25024;DHT22;13033;50.936;5.334;2023-04-03T05:37:17;2.80;99.90
25024;DHT22;13033;50.936;5.334;2023-04-03T05:39:42;2.90;99.90
25024;DHT22;13033;50.936;5.334;2023-04-03T05:42:08;2.90;99.90
25024;DHT22;13033;50.936;5.334;2023-04-03T05:44:34;2.80;99.90
25024;DHT22;13033;50.936;5.334;2023-04-03T05:47:00;2.70;99.90
25024;DHT22;13033;50.936;5.334;2023-04-03T05:49:26;2.70;99.90
25024;DHT22;13033;50.936;5.334;2023-04-03T05:51:51;2.80;99.90
25024;DHT22;13033;50.936;5.334;2023-04-03T05:54:43;3.00;99.90
25024;DHT22;13033;50.936;5.334;2023-04-03T05:57:12;3.00;99.90
25024;DHT22;13033;50.936;5.334;2023-04-03T05:59:37;3.10;99.90
25024;DHT22;13033;50.936;5.334;2023-04-03T06:02:03;3.10;99.90
25024;DHT22;13033;50.936;5.334;2023-04-03T06:04:28;3.10;99.90
25024;DHT22;13033;50.936;5.334;2023-04-03T06:06:56;3.20;99.90
25024;DHT22;13033;50.936;5.334;2023-04-03T06:09:25;3.20;99.90
25024;DHT22;13033;50.936;5.334;2023-04-03T06:11:52;3.20;99.90
25024;DHT22;13033;50.936;5.334;2023-04-03T06:14:18;3.30;99.90
25024;DHT22;13033;50.936;5.334;2023-04-03T06:16:44;3.40;99.90
25024;DHT22;13033;50.936;5.334;2023-04-03T06:19:11;3.20;99.90
25024;DHT22;13033;50.936;5.334;2023-04-03T06:21:37;3.10;99.90
25024;DHT22;13033;50.936;5.334;2023-04-03T06:24:04;3.10;99.90
25024;DHT22;13033;50.936;5.334;2023-04-03T06:26:29;3.20;99.90
25024;DHT22;13033;50.936;5.334;2023-04-03T06:28:55;3.40;99.90
25024;DHT22;13033;50.936;5.334;2023-04-03T06:31:21;3.60;99.90
25024;DHT22;13033;50.936;5.334;2023-04-03T06:33:47;3.60;99.90
25024;DHT22;13033;50.936;5.334;2023-04-03T06:36:13;3.50;99.90
25024;DHT22;13033;50.936;5.334;2023-04-03T06:38:39;3.60;99.90
25024;DHT22;13033;50.936;5.334;2023-04-03T06:41:06;3.70;99.90
25024;DHT22;13033;50.936;5.334;2023-04-03T06:43:32;3.90;99.90
25024;DHT22;13033;50.936;5.334;2023-04-03T06:45:58;4.20;99.90
25024;DHT22;13033;50.936;5.334;2023-04-03T06:48:23;4.50;99.90
25024;DHT22;13033;50.936;5.334;2023-04-03T06:50:49;4.60;99.90
25024;DHT22;13033;50.936;5.334;2023-04-03T06:53:15;4.70;99.90
25024;DHT22;13033;50.936;5.334;2023-04-03T06:55:41;4.70;99.90
25024;DHT22;13033;50.936;5.334;2023-04-03T06:58:07;4.80;99.90
25024;DHT22;13033;50.936;5.334;2023-04-03T07:00:33;4.80;99.90
25024;DHT22;13033;50.936;5.334;2023-04-03T07:02:58;4.80;99.90
25024;DHT22;13033;50.936;5.334;2023-04-03T07:05:24;4.90;99.90
25024;DHT22;13033;50.936;5.334;2023-04-03T07:07:50;5.00;99.90
25024;DHT22;13033;50.936;5.334;2023-04-03T07:10:17;5.00;99.90
25024;DHT22;13033;50.936;5.334;2023-04-03T07:12:42;5.00;99.90
25024;DHT22;13033;50.936;5.334;2023-04-03T07:15:09;5.00;99.90
25024;DHT22;13033;50.936;5.334;2023-04-03T07:17:35;5.00;99.90
25024;DHT22;13033;50.936;5.334;2023-04-03T07:20:02;5.30;99.90
25024;DHT22;13033;50.936;5.334;2023-04-03T07:22:29;5.30;99.90
25024;DHT22;13033;50.936;5.334;2023-04-03T07:24:55;5.30;99.90
25024;DHT22;13033;50.936;5.334;2023-04-03T07:27:20;5.40;99.90
25024;DHT22;13033;50.936;5.334;2023-04-03T07:29:46;5.50;99.90
25024;DHT22;13033;50.936;5.334;2023-04-03T07:32:14;5.50;99.90
25024;DHT22;13033;50.936;5.334;2023-04-03T07:34:40;5.70;99.90
25024;DHT22;13033;50.936;5.334;2023-04-03T07:37:06;5.80;99.90
25024;DHT22;13033;50.936;5.334;2023-04-03T07:39:32;5.70;99.90
25024;DHT22;13033;50.936;5.334;2023-04-03T07:41:58;5.90;99.90
25024;DHT22;13033;50.936;5.334;2023-04-03T07:44:24;6.10;99.90
25024;DHT22;13033;50.936;5.334;2023-04-03T07:46:50;6.10;99.90
25024;DHT22;13033;50.936;5.334;2023-04-03T07:49:17;6.40;99.90
25024;DHT22;13033;50.936;5.334;2023-04-03T07:51:44;6.40;99.90
25024;DHT22;13033;50.936;5.334;2023-04-03T07:54:10;6.50;99.90
25024;DHT22;13033;50.936;5.334;2023-04-03T07:56:36;6.70;99.90
25024;DHT22;13033;50.936;5.334;2023-04-03T07:59:02;6.50;99.90
25024;DHT22;13033;50.936;5.334;2023-04-03T08:01:27;6.40;99.90
25024;DHT22;13033;50.936;5.334;2023-04-03T08:03:54;6.30;99.90
25024;DHT22;13033;50.936;5.334;2023-04-03T08:06:19;6.60;99.90
25024;DHT22;13033;50.936;5.334;2023-04-03T08:08:45;6.80;99.90
25024;DHT22;13033;50.936;5.334;2023-04-03T08:11:11;6.80;99.90
25024;DHT22;13033;50.936;5.334;2023-04-03T08:13:37;6.70;99.90
25024;DHT22;13033;50.936;5.334;2023-04-03T08:16:15;7.00;99.90
25024;DHT22;13033;50.936;5.334;2023-04-03T08:18:42;7.20;99.90
25024;DHT22;13033;50.936;5.334;2023-04-03T08:21:11;7.20;99.90
25024;DHT22;13033;50.936;5.334;2023-04-03T08:23:38;7.50;99.90
25024;DHT22;13033;50.936;5.334;2023-04-03T08:26:13;7.40;99.90
25024;DHT22;13033;50.936;5.334;2023-04-03T08:28:39;6.90;99.90
25024;DHT22;13033;50.936;5.334;2023-04-03T08:31:11;7.00;99.90
25024;DHT22;13033;50.936;5.334;2023-04-03T08:33:37;7.40;99.90
25024;DHT22;13033;50.936;5.334;2023-04-03T08:36:04;7.70;99.90
25024;DHT22;13033;50.936;5.334;2023-04-03T08:38:31;7.70;99.90
25024;DHT22;13033;50.936;5.334;2023-04-03T08:46:43;7.80;99.90
25024;DHT22;13033;50.936;5.334;2023-04-03T08:49:33;7.70;99.90
25024;DHT22;13033;50.936;5.334;2023-04-03T08:52:10;7.70;99.90
25024;DHT22;13033;50.936;5.334;2023-04-03T08:54:48;7.80;99.90
25024;DHT22;13033;50.936;5.334;2023-04-03T08:57:16;7.90;99.90
25024;DHT22;13033;50.936;5.334;2023-04-03T08:59:43;8.00;99.90
25024;DHT22;13033;50.936;5.334;2023-04-03T09:05:16;8.10;99.90
25024;DHT22;13033;50.936;5.334;2023-04-03T09:07:49;8.00;99.90
25024;DHT22;13033;50.936;5.334;2023-04-03T09:10:24;7.70;99.90
25024;DHT22;13033;50.936;5.334;2023-04-03T09:13:02;8.00;99.90
25024;DHT22;13033;50.936;5.334;2023-04-03T09:15:30;8.30;99.90
25024;DHT22;13033;50.936;5.334;2023-04-03T09:22:59;8.40;99.90
25024;DHT22;13033;50.936;5.334;2023-04-03T09:25:32;8.40;99.90
25024;DHT22;13033;50.936;5.334;2023-04-03T09:28:00;8.40;99.90
25024;DHT22;13033;50.936;5.334;2023-04-03T09:30:27;8.40;99.90
25024;DHT22;13033;50.936;5.334;2023-04-03T09:32:56;8.60;99.90
25024;DHT22;13033;50.936;5.334;2023-04-03T09:38:17;8.20;99.90
25024;DHT22;13033;50.936;5.334;2023-04-03T09:40:42;8.00;99.90
25024;DHT22;13033;50.936;5.334;2023-04-03T09:43:30;8.10;99.90
25024;DHT22;13033;50.936;5.334;2023-04-03T09:46:15;8.20;99.90
25024;DHT22;13033;50.936;5.334;2023-04-03T09:48:50;8.40;99.90
25024;DHT22;13033;50.936;5.334;2023-04-03T09:51:16;8.70;99.90
25024;DHT22;13033;50.936;5.334;2023-04-03T09:53:44;8.80;99.90
25024;DHT22;13033;50.936;5.334;2023-04-03T09:59:24;8.90;99.90
25024;DHT22;13033;50.936;5.334;2023-04-03T10:01:37;9.20;99.90
25024;DHT22;13033;50.936;5.334;2023-04-03T10:06:33;9.50;99.90
25024;DHT22;13033;50.936;5.334;2023-04-03T10:09:10;9.30;99.90
25024;DHT22;13033;50.936;5.334;2023-04-03T10:14:27;9.20;99.90
25024;DHT22;13033;50.936;5.334;2023-04-03T10:25:23;9.60;97.50
25024;DHT22;13033;50.936;5.334;2023-04-03T10:33:27;9.20;94.30
25024;DHT22;13033;50.936;5.334;2023-04-03T10:47:12;9.60;94.50
25024;DHT22;13033;50.936;5.334;2023-04-03T10:49:58;9.70;94.40
25024;DHT22;13033;50.936;5.334;2023-04-03T10:57:37;9.80;91.20
25024;DHT22;13033;50.936;5.334;2023-04-03T11:00:14;9.90;87.80
25024;DHT22;13033;50.936;5.334;2023-04-03T11:02:55;9.90;85.30
25024;DHT22;13033;50.936;5.334;2023-04-03T11:05:47;9.70;82.30
25024;DHT22;13033;50.936;5.334;2023-04-03T11:10:48;9.80;83.00
25024;DHT22;13033;50.936;5.334;2023-04-03T11:13:19;10.00;83.50
25024;DHT22;13033;50.936;5.334;2023-04-03T11:15:46;10.40;84.10
25024;DHT22;13033;50.936;5.334;2023-04-03T11:18:19;10.50;81.00
25024;DHT22;13033;50.936;5.334;2023-04-03T11:21:12;10.60;79.10
25024;DHT22;13033;50.936;5.334;2023-04-03T11:23:40;10.60;78.40
25024;DHT22;13033;50.936;5.334;2023-04-03T11:26:29;10.50;75.60
25024;DHT22;13033;50.936;5.334;2023-04-03T11:28:59;10.20;75.00
25024;DHT22;13033;50.936;5.334;2023-04-03T11:31:51;10.10;77.30
25024;DHT22;13033;50.936;5.334;2023-04-03T11:34:37;10.30;78.40
25024;DHT22;13033;50.936;5.334;2023-04-03T11:37:36;10.40;76.80
25024;DHT22;13033;50.936;5.334;2023-04-03T11:40:30;10.40;76.80
25024;DHT22;13033;50.936;5.334;2023-04-03T11:43:15;10.50;77.20
25024;DHT22;13033;50.936;5.334;2023-04-03T11:45:49;10.60;76.20
25024;DHT22;13033;50.936;5.334;2023-04-03T11:50:45;10.20;76.70
25024;DHT22;13033;50.936;5.334;2023-04-03T11:55:54;10.00;77.10
25024;DHT22;13033;50.936;5.334;2023-04-03T11:58:24;10.30;77.20
25024;DHT22;13033;50.936;5.334;2023-04-03T12:01:03;10.10;77.10
25024;DHT22;13033;50.936;5.334;2023-04-03T12:03:31;10.00;78.30
25024;DHT22;13033;50.936;5.334;2023-04-03T12:16:53;10.20;77.20
25024;DHT22;13033;50.936;5.334;2023-04-03T12:32:09;10.30;77.20
25024;DHT22;13033;50.936;5.334;2023-04-03T12:44:56;11.00;77.00
25024;DHT22;13033;50.936;5.334;2023-04-03T12:47:31;10.90;73.70
25024;DHT22;13033;50.936;5.334;2023-04-03T12:49:59;11.00;75.60
25024;DHT22;13033;50.936;5.334;2023-04-03T12:52:33;11.10;74.10
25024;DHT22;13033;50.936;5.334;2023-04-03T12:55:01;11.10;72.10
25024;DHT22;13033;50.936;5.334;2023-04-03T12:57:30;11.10;74.10
25024;DHT22;13033;50.936;5.334;2023-04-03T12:59:56;11.00;74.80
25024;DHT22;13033;50.936;5.334;2023-04-03T13:02:28;11.00;75.60
25024;DHT22;13033;50.936;5.334;2023-04-03T13:05:05;11.10;73.80
25024;DHT22;13033;50.936;5.334;2023-04-03T13:07:36;11.20;75.50
25024;DHT22;13033;50.936;5.334;2023-04-03T13:12:34;11.30;73.50
25024;DHT22;13033;50.936;5.334;2023-04-03T13:15:11;11.10;74.90
25024;DHT22;13033;50.936;5.334;2023-04-03T13:17:42;11.20;73.40
25024;DHT22;13033;50.936;5.334;2023-04-03T13:20:22;11.20;74.90
25024;DHT22;13033;50.936;5.334;2023-04-03T13:22:53;11.00;75.10
25024;DHT22;13033;50.936;5.334;2023-04-03T13:25:23;10.80;75.70
25024;DHT22;13033;50.936;5.334;2023-04-03T13:27:49;10.90;77.10
25024;DHT22;13033;50.936;5.334;2023-04-03T13:30:32;11.20;76.80
25024;DHT22;13033;50.936;5.334;2023-04-03T13:32:58;11.30;75.50
25024;DHT22;13033;50.936;5.334;2023-04-03T13:35:31;11.40;76.20
25024;DHT22;13033;50.936;5.334;2023-04-03T13:38:01;11.40;76.70
25024;DHT22;13033;50.936;5.334;2023-04-03T13:40:27;11.60;77.10
25024;DHT22;13033;50.936;5.334;2023-04-03T13:43:05;11.60;76.40
25024;DHT22;13033;50.936;5.334;2023-04-03T13:45:34;11.70;76.30
25024;DHT22;13033;50.936;5.334;2023-04-03T13:48:18;11.80;77.40
25024;DHT22;13033;50.936;5.334;2023-04-03T13:56:23;11.70;76.60
25024;DHT22;13033;50.936;5.334;2023-04-03T13:58:56;11.80;77.00
25024;DHT22;13033;50.936;5.334;2023-04-03T14:01:23;11.90;76.10
25024;DHT22;13033;50.936;5.334;2023-04-03T14:03:54;11.80;77.50
25024;DHT22;13033;50.936;5.334;2023-04-03T14:06:20;11.90;77.70
25024;DHT22;13033;50.936;5.334;2023-04-03T14:08:46;11.80;76.90
25024;DHT22;13033;50.936;5.334;2023-04-03T14:11:24;11.80;78.10
25024;DHT22;13033;50.936;5.334;2023-04-03T14:13:52;11.50;78.10
25024;DHT22;13033;50.936;5.334;2023-04-03T14:16:21;11.70;79.00
25024;DHT22;13033;50.936;5.334;2023-04-03T14:18:48;12.10;77.50
25024;DHT22;13033;50.936;5.334;2023-04-03T14:21:16;12.10;76.90
25024;DHT22;13033;50.936;5.334;2023-04-03T14:23:43;12.00;76.50
25024;DHT22;13033;50.936;5.334;2023-04-03T14:26:17;12.20;76.50
25024;DHT22;13033;50.936;5.334;2023-04-03T14:28:45;12.20;75.00
25024;DHT22;13033;50.936;5.334;2023-04-03T14:31:13;12.20;73.90
25024;DHT22;13033;50.936;5.334;2023-04-03T14:33:40;12.30;73.70
25024;DHT22;13033;50.936;5.334;2023-04-03T14:36:23;12.00;73.70
25024;DHT22;13033;50.936;5.334;2023-04-03T14:38:51;12.00;74.80
25024;DHT22;13033;50.936;5.334;2023-04-03T14:41:20;12.10;74.80
25024;DHT22;13033;50.936;5.334;2023-04-03T14:43:47;12.50;75.70
25024;DHT22;13033;50.936;5.334;2023-04-03T14:46:20;13.50;72.30
25024;DHT22;13033;50.936;5.334;2023-04-03T14:48:47;14.80;69.70
25024;DHT22;13033;50.936;5.334;2023-04-03T14:51:14;16.30;66.00
25024;DHT22;13033;50.936;5.334;2023-04-03T14:53:42;17.20;62.40
25024;DHT22;13033;50.936;5.334;2023-04-03T14:56:16;17.10;61.40
25024;DHT22;13033;50.936;5.334;2023-04-03T14:58:43;16.90;60.80
25024;DHT22;13033;50.936;5.334;2023-04-03T15:01:11;16.40;61.40
25024;DHT22;13033;50.936;5.334;2023-04-03T15:03:39;17.10;59.20
25024;DHT22;13033;50.936;5.334;2023-04-03T15:06:05;17.30;58.50
25024;DHT22;13033;50.936;5.334;2023-04-03T15:08:31;17.40;57.80
25024;DHT22;13033;50.936;5.334;2023-04-03T15:10:57;18.00;57.00
25024;DHT22;13033;50.936;5.334;2023-04-03T15:13:24;18.30;54.90
25024;DHT22;13033;50.936;5.334;2023-04-03T15:15:51;18.30;53.50
25024;DHT22;13033;50.936;5.334;2023-04-03T15:18:20;18.40;53.10
25024;DHT22;13033;50.936;5.334;2023-04-03T15:20:48;18.80;53.60
25024;DHT22;13033;50.936;5.334;2023-04-03T15:23:15;18.60;52.00
25024;DHT22;13033;50.936;5.334;2023-04-03T15:25:46;18.40;53.30
25024;DHT22;13033;50.936;5.334;2023-04-03T15:28:34;18.50;52.00
25024;DHT22;13033;50.936;5.334;2023-04-03T15:31:01;17.30;53.30
25024;DHT22;13033;50.936;5.334;2023-04-03T15:33:27;17.20;54.00
25024;DHT22;13033;50.936;5.334;2023-04-03T15:35:53;17.50;53.30
25024;DHT22;13033;50.936;5.334;2023-04-03T15:38:19;17.90;52.90
25024;DHT22;13033;50.936;5.334;2023-04-03T15:40:45;17.80;52.50
25024;DHT22;13033;50.936;5.334;2023-04-03T15:43:13;18.00;52.60
25024;DHT22;13033;50.936;5.334;2023-04-03T15:45:39;18.30;51.20
25024;DHT22;13033;50.936;5.334;2023-04-03T15:48:06;17.90;51.20
25024;DHT22;13033;50.936;5.334;2023-04-03T15:50:33;17.10;51.80
25024;DHT22;13033;50.936;5.334;2023-04-03T15:52:59;17.30;52.40
25024;DHT22;13033;50.936;5.334;2023-04-03T15:55:28;17.50;52.20
25024;DHT22;13033;50.936;5.334;2023-04-03T15:57:54;17.90;51.10
25024;DHT22;13033;50.936;5.334;2023-04-03T16:00:21;18.50;50.00
25024;DHT22;13033;50.936;5.334;2023-04-03T16:02:49;19.10;48.50
25024;DHT22;13033;50.936;5.334;2023-04-03T16:05:16;19.60;48.50
25024;DHT22;13033;50.936;5.334;2023-04-03T16:07:42;19.90;47.50
25024;DHT22;13033;50.936;5.334;2023-04-03T16:10:09;19.60;46.80
25024;DHT22;13033;50.936;5.334;2023-04-03T16:12:36;19.10;47.30
25024;DHT22;13033;50.936;5.334;2023-04-03T16:15:02;19.10;47.60
25024;DHT22;13033;50.936;5.334;2023-04-03T16:17:28;19.30;47.60
25024;DHT22;13033;50.936;5.334;2023-04-03T16:19:54;19.70;46.50
25024;DHT22;13033;50.936;5.334;2023-04-03T16:22:21;18.60;47.20
25024;DHT22;13033;50.936;5.334;2023-04-03T16:24:49;18.20;47.20
25024;DHT22;13033;50.936;5.334;2023-04-03T16:27:15;18.90;46.70
25024;DHT22;13033;50.936;5.334;2023-04-03T16:29:41;18.60;46.90
25024;DHT22;13033;50.936;5.334;2023-04-03T16:32:07;19.20;46.90
25024;DHT22;13033;50.936;5.334;2023-04-03T16:34:33;19.40;45.40
25024;DHT22;13033;50.936;5.334;2023-04-03T16:36:59;18.90;46.00
25024;DHT22;13033;50.936;5.334;2023-04-03T16:39:25;18.00;47.00
25024;DHT22;13033;50.936;5.334;2023-04-03T16:41:51;17.20;48.70
25024;DHT22;13033;50.936;5.334;2023-04-03T16:44:17;17.50;48.40
25024;DHT22;13033;50.936;5.334;2023-04-03T16:46:42;18.00;47.60
25024;DHT22;13033;50.936;5.334;2023-04-03T16:49:08;18.10;47.10
25024;DHT22;13033;50.936;5.334;2023-04-03T16:51:34;17.10;48.30
25024;DHT22;13033;50.936;5.334;2023-04-03T16:53:59;16.40;49.50
25024;DHT22;13033;50.936;5.334;2023-04-03T16:56:25;16.10;49.90
25024;DHT22;13033;50.936;5.334;2023-04-03T16:58:52;15.00;50.90
25024;DHT22;13033;50.936;5.334;2023-04-03T17:01:20;14.10;53.00
25024;DHT22;13033;50.936;5.334;2023-04-03T17:03:46;13.10;55.10
25024;DHT22;13033;50.936;5.334;2023-04-03T17:06:17;12.70;56.20
25024;DHT22;13033;50.936;5.334;2023-04-03T17:08:44;12.20;57.20
25024;DHT22;13033;50.936;5.334;2023-04-03T17:11:10;11.90;58.30
25024;DHT22;13033;50.936;5.334;2023-04-03T17:13:36;11.60;59.00
25024;DHT22;13033;50.936;5.334;2023-04-03T17:16:04;11.20;60.20
25024;DHT22;13033;50.936;5.334;2023-04-03T17:18:31;11.00;61.10
25024;DHT22;13033;50.936;5.334;2023-04-03T17:20:58;10.80;62.00
25024;DHT22;13033;50.936;5.334;2023-04-03T17:23:25;10.70;63.00
25024;DHT22;13033;50.936;5.334;2023-04-03T17:25:51;10.80;63.70
25024;DHT22;13033;50.936;5.334;2023-04-03T17:28:19;10.80;63.60
25024;DHT22;13033;50.936;5.334;2023-04-03T17:30:47;10.80;63.70
25024;DHT22;13033;50.936;5.334;2023-04-03T17:33:13;10.70;63.30
25024;DHT22;13033;50.936;5.334;2023-04-03T17:35:38;10.50;64.10
25024;DHT22;13033;50.936;5.334;2023-04-03T17:38:04;10.50;64.70
25024;DHT22;13033;50.936;5.334;2023-04-03T17:40:30;10.90;64.40